Time;durP1;ratioP1;P1;durP2;ratioP2;P2;SDS_P1;SDS_P2;PMS_P1;PMS_P2;Temp;Humidity;BMP_temperature;BMP_pressure;BME280_temperature;BME280_humidity;BME280_pressure;Samples;Min_cycle;Max_cycle;Signal;HPM_P1;HPM_P2
2022/05/01 00:01:47;;;;;;;5.00;1.40;;;18.80;99.90;;;;;;5049166;28;20219;-92
2022/05/01 00:04:19;;;;;;;3.60;1.60;;;18.80;99.90;;;;;;5046489;28;20236;-93
2022/05/01 00:07:12;;;;;;;5.70;1.40;;;18.80;99.90;;;;;;5050702;28;20208;-92
2022/05/01 00:09:44;;;;;;;3.63;1.10;;;18.60;99.90;;;;;;5050560;28;20216;-92
2022/05/01 00:12:18;;;;;;;3.37;1.27;;;18.80;99.90;;;;;;5036382;28;20272;-92
2022/05/01 00:14:50;;;;;;;5.17;1.30;;;19.10;99.90;;;;;;5043352;28;20205;-93
2022/05/01 00:17:23;;;;;;;4.33;1.60;;;18.90;99.90;;;;;;5042885;28;20217;-92
2022/05/01 00:19:57;;;;;;;2.10;1.10;;;18.60;99.90;;;;;;5026921;28;20228;-93
2022/05/01 00:22:31;;;;;;;2.90;1.20;;;18.60;99.90;;;;;;5043780;28;20692;-92
2022/05/01 00:25:03;;;;;;;4.03;1.40;;;18.70;99.90;;;;;;5043991;28;20288;-92
2022/05/01 00:27:35;;;;;;;5.83;1.77;;;18.80;99.90;;;;;;5044413;28;20209;-93
2022/05/01 00:30:08;;;;;;;4.70;1.90;;;18.60;99.90;;;;;;5052026;28;20224;-93
2022/05/01 00:38:17;;;;;;;5.43;1.83;;;18.40;99.90;;;;;;5041365;28;20212;-93
2022/05/01 00:40:49;;;;;;;7.00;2.27;;;18.30;99.90;;;;;;4707061;28;10000421;-92
2022/05/01 00:43:20;;;;;;;4.40;1.87;;;17.40;99.90;;;;;;5039431;28;20221;-92
2022/05/01 00:45:52;;;;;;;5.90;2.03;;;17.20;99.90;;;;;;5056573;28;20188;-93
2022/05/01 00:48:26;;;;;;;5.50;2.10;;;17.40;99.90;;;;;;5056306;28;20195;-93
2022/05/01 00:51:00;;;;;;;6.17;1.87;;;17.50;99.90;;;;;;5056839;28;20169;-93
2022/05/01 00:53:35;;;;;;;3.30;1.63;;;17.40;99.90;;;;;;5068442;28;20256;-92
2022/05/01 00:56:11;;;;;;;4.23;1.97;;;17.60;99.90;;;;;;5056429;28;20217;-93
2022/05/01 00:58:48;;;;;;;6.67;2.20;;;18.00;99.90;;;;;;5055712;28;20201;-94
2022/05/01 01:01:22;;;;;;;3.90;2.00;;;18.70;99.90;;;;;;5055132;28;20185;-92
2022/05/01 01:03:54;;;;;;;5.47;2.30;;;19.10;99.90;;;;;;5055489;28;20228;-93
2022/05/01 01:06:26;;;;;;;4.67;2.00;;;19.20;99.90;;;;;;5054528;28;20205;-92
2022/05/01 01:09:01;;;;;;;5.97;2.20;;;19.30;99.90;;;;;;5054783;28;20201;-92
2022/05/01 01:11:33;;;;;;;4.50;1.50;;;19.00;99.90;;;;;;5055211;28;20193;-90
2022/05/01 01:14:05;;;;;;;3.57;1.37;;;18.80;99.90;;;;;;5054343;28;20215;-92
2022/05/01 01:19:23;;;;;;;2.90;1.40;;;18.60;99.90;;;;;;5052946;28;20224;-92
2022/05/01 01:21:57;;;;;;;3.60;1.70;;;19.00;99.90;;;;;;5055845;28;20228;-91
2022/05/01 01:24:34;;;;;;;3.27;1.80;;;19.40;99.90;;;;;;5026763;28;20220;-92
2022/05/01 01:27:08;;;;;;;2.93;1.90;;;19.40;99.90;;;;;;5056688;28;20275;-92
2022/05/01 01:32:32;;;;;;;4.13;1.90;;;19.40;99.90;;;;;;5035743;28;20206;-92
2022/05/01 01:35:06;;;;;;;1.97;1.43;;;19.40;99.90;;;;;;5034263;28;20216;-91
2022/05/01 01:37:49;;;;;;;3.20;1.57;;;19.10;99.90;;;;;;5029840;28;20569;-92
2022/05/01 01:40:27;;;;;;;2.50;1.53;;;19.10;99.90;;;;;;5053632;28;20217;-92
2022/05/01 01:42:59;;;;;;;3.20;1.70;;;19.40;99.90;;;;;;5048146;28;20258;-92
2022/05/01 01:45:32;;;;;;;5.63;1.40;;;19.70;99.90;;;;;;5049472;28;20276;-92
2022/05/01 01:48:12;;;;;;;3.63;1.70;;;19.90;99.90;;;;;;5026640;28;20232;-91
2022/05/01 01:50:44;;;;;;;4.20;1.63;;;20.00;99.90;;;;;;5047808;28;20745;-92
2022/05/01 01:53:21;;;;;;;2.53;1.70;;;20.10;99.90;;;;;;5050494;28;20204;-92
2022/05/01 01:55:52;;;;;;;5.17;1.83;;;19.50;99.90;;;;;;5051623;28;20278;-92
2022/05/01 01:58:24;;;;;;;2.73;1.57;;;18.60;99.90;;;;;;5029913;28;20213;-92
2022/05/01 02:00:56;;;;;;;2.97;2.00;;;17.60;99.90;;;;;;5049912;28;20209;-92
2022/05/01 02:03:27;;;;;;;2.77;1.80;;;17.00;99.90;;;;;;5056786;28;20197;-92
2022/05/01 02:06:03;;;;;;;1.53;1.37;;;16.40;99.90;;;;;;5057378;28;20190;-91
2022/05/01 02:08:37;;;;;;;1.93;1.47;;;16.20;99.90;;;;;;5059099;28;20183;-92
2022/05/01 02:11:10;;;;;;;2.70;1.57;;;15.90;99.90;;;;;;5058746;28;20219;-92
2022/05/01 02:13:42;;;;;;;2.50;1.67;;;15.70;99.90;;;;;;5055689;28;20209;-92
2022/05/01 02:16:17;;;;;;;2.23;1.40;;;15.50;99.90;;;;;;5038301;28;20213;-92
2022/05/01 02:18:50;;;;;;;2.03;1.53;;;15.20;99.90;;;;;;5053060;28;20227;-91
2022/05/01 02:21:40;;;;;;;3.93;1.70;;;15.10;99.90;;;;;;5052124;28;20212;-91
2022/05/01 02:24:16;;;;;;;2.53;1.67;;;15.00;99.90;;;;;;5049736;28;20271;-92
2022/05/01 02:26:55;;;;;;;2.80;1.70;;;14.80;99.90;;;;;;5082964;22;20232;-91
2022/05/01 02:29:31;;;;;;;3.07;1.40;;;14.60;99.90;;;;;;5073391;28;20298;-90
2022/05/01 02:32:05;;;;;;;2.30;1.40;;;14.50;99.90;;;;;;5072923;28;20209;-91
2022/05/01 02:34:37;;;;;;;1.53;1.43;;;14.40;99.90;;;;;;5071074;28;20200;-91
2022/05/01 02:45:15;;;;;;;1.07;0.90;;;13.70;99.90;;;;;;5058329;28;20235;-92
2022/05/01 02:47:46;;;;;;;1.23;1.00;;;13.60;99.90;;;;;;5058019;28;20201;-91
2022/05/01 02:50:17;;;;;;;1.60;1.20;;;13.50;99.90;;;;;;5060330;28;20342;-91
2022/05/01 02:52:51;;;;;;;1.70;1.10;;;13.40;99.90;;;;;;5059587;28;20249;-91
2022/05/01 02:55:23;;;;;;;1.93;1.10;;;13.30;99.90;;;;;;5059923;28;20254;-91
2022/05/01 02:57:57;;;;;;;1.43;1.10;;;13.20;99.90;;;;;;5058996;28;20231;-91
2022/05/01 03:00:31;;;;;;;1.50;1.33;;;13.10;99.90;;;;;;5063148;28;20212;-89
2022/05/01 03:03:02;;;;;;;1.63;1.30;;;12.90;99.90;;;;;;5071293;28;20208;-91
2022/05/01 03:05:34;;;;;;;2.00;1.13;;;12.90;99.90;;;;;;5068823;28;20243;-92
2022/05/01 03:08:06;;;;;;;2.57;1.20;;;12.90;99.90;;;;;;5067191;28;20208;-91
2022/05/01 03:10:38;;;;;;;1.50;1.40;;;12.80;99.90;;;;;;5063643;28;20490;-91
2022/05/01 03:13:10;;;;;;;1.47;1.37;;;12.70;99.90;;;;;;5066263;28;20285;-90
2022/05/01 03:15:48;;;;;;;1.50;1.30;;;12.70;99.90;;;;;;5063778;28;20260;-91
2022/05/01 03:23:58;;;;;;;1.30;1.20;;;12.50;99.90;;;;;;5077788;28;20193;-90
2022/05/01 03:26:30;;;;;;;1.73;1.13;;;12.50;99.90;;;;;;5074568;28;20212;-91
2022/05/01 03:29:04;;;;;;;3.00;1.50;;;12.50;99.90;;;;;;5071488;28;20204;-90
2022/05/01 03:31:39;;;;;;;1.60;1.33;;;12.50;99.90;;;;;;5065833;28;20192;-91
2022/05/01 03:34:12;;;;;;;2.10;1.30;;;12.40;99.90;;;;;;5077076;28;20192;-91
2022/05/01 03:36:47;;;;;;;3.30;1.80;;;12.40;99.90;;;;;;5077719;28;20186;-91
2022/05/01 03:39:18;;;;;;;1.83;1.70;;;12.40;99.90;;;;;;5073057;28;20659;-92
2022/05/01 03:41:51;;;;;;;2.10;1.50;;;12.30;99.90;;;;;;5072871;28;20189;-91
2022/05/01 03:44:24;;;;;;;3.57;1.73;;;12.20;99.90;;;;;;5071867;28;20278;-91
2022/05/01 03:46:59;;;;;;;3.13;1.90;;;12.10;99.90;;;;;;5074520;28;20203;-92
2022/05/01 03:49:30;;;;;;;2.63;1.80;;;12.10;99.90;;;;;;5076924;28;20228;-91
2022/05/01 03:52:04;;;;;;;1.60;1.47;;;12.10;99.90;;;;;;5074563;28;20230;-92
2022/05/01 03:54:35;;;;;;;1.80;1.70;;;12.10;99.90;;;;;;5069531;28;20196;-91
2022/05/01 03:57:09;;;;;;;3.93;1.80;;;12.00;99.90;;;;;;5070934;28;20212;-91
2022/05/01 03:59:41;;;;;;;1.57;1.47;;;12.00;99.90;;;;;;5065586;28;20231;-90
2022/05/01 04:02:17;;;;;;;2.57;1.73;;;11.90;99.90;;;;;;5065425;28;20269;-90
2022/05/01 04:04:49;;;;;;;3.13;1.90;;;11.90;99.90;;;;;;5069881;28;20334;-90
2022/05/01 04:07:21;;;;;;;3.33;2.30;;;12.00;99.90;;;;;;5069596;28;20212;-91
2022/05/01 04:09:54;;;;;;;3.20;2.03;;;12.00;99.90;;;;;;5070783;28;20204;-91
2022/05/01 04:12:26;;;;;;;2.93;1.90;;;12.00;99.90;;;;;;5061417;28;20238;-90
2022/05/01 04:15:02;;;;;;;2.70;2.30;;;12.00;99.90;;;;;;5058624;28;20211;-90
2022/05/01 04:17:50;;;;;;;3.23;2.20;;;12.10;99.90;;;;;;5131264;22;20295;-92
2022/05/01 04:20:23;;;;;;;3.00;2.20;;;12.10;99.90;;;;;;5034242;28;20189;-90
2022/05/01 04:22:54;;;;;;;1.70;1.60;;;12.10;99.90;;;;;;5033505;28;20209;-90
2022/05/01 04:25:27;;;;;;;4.43;1.77;;;12.10;99.90;;;;;;5029590;28;20241;-90
2022/05/01 04:28:00;;;;;;;2.63;1.90;;;12.00;99.90;;;;;;5034743;28;20221;-90
2022/05/01 04:30:33;;;;;;;3.70;1.80;;;12.00;99.90;;;;;;5032577;28;20222;-90
2022/05/01 04:33:08;;;;;;;2.40;1.73;;;11.90;99.90;;;;;;5029302;28;20214;-91
2022/05/01 04:35:42;;;;;;;2.80;1.87;;;11.90;99.90;;;;;;5022288;28;20288;-88
2022/05/01 04:38:21;;;;;;;4.53;2.00;;;11.80;99.90;;;;;;5031806;28;20205;-89
2022/05/01 04:40:58;;;;;;;3.50;2.17;;;11.80;99.90;;;;;;5031850;28;20296;-89
2022/05/01 04:46:27;;;;;;;3.50;2.40;;;11.50;99.90;;;;;;5029495;28;20728;-91
2022/05/01 04:49:01;;;;;;;3.57;2.00;;;11.40;99.90;;;;;;5012904;28;20194;-92
2022/05/01 04:51:32;;;;;;;3.87;2.30;;;11.30;99.90;;;;;;4999316;28;20284;-91
2022/05/01 04:54:04;;;;;;;3.30;2.10;;;11.20;99.90;;;;;;4998422;28;20302;-91
2022/05/01 04:59:23;;;;;;;2.53;2.33;;;11.10;99.90;;;;;;4996988;28;20206;-90
2022/05/01 05:01:54;;;;;;;3.47;2.60;;;11.10;99.90;;;;;;4997775;28;20285;-91
2022/05/01 05:04:33;;;;;;;2.90;2.30;;;10.90;99.90;;;;;;5014987;28;20228;-91
2022/05/01 05:07:05;;;;;;;2.60;2.40;;;10.80;99.90;;;;;;5019928;28;20240;-91
2022/05/01 05:12:24;;;;;;;2.50;2.20;;;10.60;99.90;;;;;;5016710;28;20236;-91
2022/05/01 05:14:59;;;;;;;3.47;2.57;;;10.50;99.90;;;;;;5017293;28;20205;-91
2022/05/01 05:17:33;;;;;;;3.40;2.13;;;10.50;99.90;;;;;;5022917;28;20231;-89
2022/05/01 05:20:08;;;;;;;2.20;2.00;;;10.40;99.90;;;;;;5017187;28;20232;-91
2022/05/01 05:22:42;;;;;;;4.27;2.07;;;10.30;99.90;;;;;;5017279;28;20263;-91
2022/05/01 05:25:19;;;;;;;2.43;2.23;;;10.30;99.90;;;;;;5017299;28;20296;-91
2022/05/01 05:27:53;;;;;;;3.73;2.20;;;10.30;99.90;;;;;;5016402;28;20733;-91
2022/05/01 05:30:24;;;;;;;3.57;2.03;;;10.30;99.90;;;;;;5018608;28;20201;-91
2022/05/01 05:32:57;;;;;;;3.17;2.00;;;10.30;99.90;;;;;;5020157;28;20214;-91
2022/05/01 05:35:30;;;;;;;2.33;2.00;;;10.30;99.90;;;;;;5017658;28;20756;-91
2022/05/01 05:38:01;;;;;;;4.23;2.77;;;10.40;99.90;;;;;;5016866;28;20237;-91
2022/05/01 05:40:32;;;;;;;6.67;5.10;;;10.50;99.90;;;;;;5017152;28;20262;-91
2022/05/01 05:43:03;;;;;;;5.33;4.80;;;10.60;99.90;;;;;;5017479;28;20292;-91
2022/05/01 05:45:34;;;;;;;5.40;4.27;;;10.60;99.90;;;;;;5018944;28;20368;-91
2022/05/01 05:48:06;;;;;;;5.77;5.00;;;10.60;99.90;;;;;;5016419;28;20573;-91
2022/05/01 05:50:40;;;;;;;7.27;5.40;;;10.60;99.90;;;;;;5016437;28;20284;-90
2022/05/01 05:53:11;;;;;;;4.97;4.40;;;10.50;99.90;;;;;;5016746;28;20202;-91
2022/05/01 05:55:46;;;;;;;6.90;4.60;;;10.50;99.90;;;;;;5016381;28;20296;-91
2022/05/01 05:58:17;;;;;;;5.77;3.83;;;10.40;99.90;;;;;;5016368;28;20209;-91
2022/05/01 06:00:48;;;;;;;3.50;3.20;;;10.40;99.90;;;;;;5016498;28;20273;-91
2022/05/01 06:03:20;;;;;;;3.97;3.57;;;10.30;99.90;;;;;;5016313;28;20297;-92
2022/05/01 06:05:53;;;;;;;3.33;3.03;;;10.30;99.90;;;;;;5016046;28;20364;-92
2022/05/01 06:08:25;;;;;;;4.80;3.20;;;10.20;99.90;;;;;;5021849;28;20215;-91
2022/05/01 06:10:57;;;;;;;2.97;2.67;;;10.10;99.90;;;;;;5020742;28;20303;-92
2022/05/01 06:13:28;;;;;;;2.87;2.50;;;10.10;99.90;;;;;;5022805;28;20217;-90
2022/05/01 06:16:00;;;;;;;4.23;2.37;;;10.10;99.90;;;;;;5022136;28;20216;-90
2022/05/01 06:18:32;;;;;;;2.67;2.47;;;10.10;99.90;;;;;;5026749;28;20244;-90
2022/05/01 06:21:06;;;;;;;2.67;2.33;;;10.00;99.90;;;;;;5023144;28;20212;-90
2022/05/01 06:23:37;;;;;;;2.33;1.97;;;10.00;99.90;;;;;;5020953;28;20209;-90
2022/05/01 06:26:10;;;;;;;2.50;2.30;;;10.00;99.90;;;;;;5020488;28;20229;-90
2022/05/01 06:28:42;;;;;;;3.23;2.30;;;9.90;99.90;;;;;;5022805;28;20205;-90
2022/05/01 06:31:13;;;;;;;2.20;2.03;;;9.80;99.90;;;;;;5023908;28;20209;-90
2022/05/01 06:33:47;;;;;;;2.30;2.10;;;9.80;99.90;;;;;;5038107;28;20229;-91
2022/05/01 06:36:20;;;;;;;3.33;2.10;;;9.80;99.90;;;;;;5038246;28;20210;-91
2022/05/01 06:38:51;;;;;;;2.87;2.13;;;9.70;99.90;;;;;;5031770;28;20217;-91
2022/05/01 06:41:22;;;;;;;3.03;2.20;;;9.70;99.90;;;;;;5021128;28;20222;-90
2022/05/01 06:43:53;;;;;;;2.67;2.47;;;9.70;99.90;;;;;;5021388;28;20216;-90
2022/05/01 06:46:25;;;;;;;2.37;2.00;;;9.70;99.90;;;;;;5019584;28;20284;-90
2022/05/01 06:48:59;;;;;;;2.77;2.37;;;9.60;99.90;;;;;;5019578;28;20217;-90
2022/05/01 06:51:32;;;;;;;2.50;2.13;;;9.60;99.90;;;;;;5020081;28;20209;-89
2022/05/01 06:54:07;;;;;;;2.73;2.53;;;9.60;99.90;;;;;;5019262;28;20221;-90
2022/05/01 06:56:41;;;;;;;2.40;2.20;;;9.50;99.90;;;;;;5019846;28;20213;-90
2022/05/01 06:59:14;;;;;;;2.90;2.23;;;9.40;99.90;;;;;;5024101;28;20213;-89
2022/05/01 07:01:50;;;;;;;3.37;2.10;;;9.40;99.90;;;;;;5023617;28;20213;-90
2022/05/01 07:04:27;;;;;;;2.77;2.30;;;9.40;99.90;;;;;;5028640;28;20221;-90
2022/05/01 07:07:01;;;;;;;2.33;2.13;;;9.40;99.90;;;;;;5031815;28;20262;-90
2022/05/01 07:09:32;;;;;;;2.47;2.27;;;9.30;99.90;;;;;;5021519;28;20229;-91
2022/05/01 07:12:04;;;;;;;2.50;2.30;;;9.30;99.90;;;;;;5019507;28;20205;-91
2022/05/01 07:14:35;;;;;;;2.53;2.33;;;9.20;99.90;;;;;;5019241;28;20202;-91
2022/05/01 07:17:06;;;;;;;3.13;2.50;;;9.20;99.90;;;;;;5018896;28;20273;-91
2022/05/01 07:19:37;;;;;;;3.00;2.47;;;9.10;99.90;;;;;;5018784;28;20218;-91
2022/05/01 07:22:12;;;;;;;2.80;2.40;;;9.10;99.90;;;;;;5019703;28;20215;-90
2022/05/01 07:24:44;;;;;;;2.70;2.50;;;9.10;99.90;;;;;;5018942;28;20279;-91
2022/05/01 07:27:16;;;;;;;3.40;2.60;;;9.00;99.90;;;;;;5018541;28;20610;-90
2022/05/01 07:29:47;;;;;;;2.90;2.60;;;9.00;99.90;;;;;;5018638;28;20232;-90
2022/05/01 07:32:19;;;;;;;3.07;2.67;;;9.00;99.90;;;;;;4999027;28;20582;-90
2022/05/01 07:34:51;;;;;;;3.00;2.70;;;9.00;99.90;;;;;;5025758;28;20300;-90
2022/05/01 07:37:26;;;;;;;3.47;3.17;;;9.00;99.90;;;;;;5019484;28;20651;-90
2022/05/01 07:39:57;;;;;;;4.50;2.70;;;9.00;99.90;;;;;;5019760;28;20205;-90
2022/05/01 07:42:29;;;;;;;3.40;2.73;;;8.90;99.90;;;;;;5018915;28;20209;-90
2022/05/01 07:45:00;;;;;;;2.93;2.70;;;8.90;99.90;;;;;;5018259;28;20201;-90
2022/05/01 07:47:32;;;;;;;2.93;2.53;;;8.70;99.90;;;;;;5020086;28;20296;-90
2022/05/01 07:50:03;;;;;;;3.10;2.70;;;8.60;99.90;;;;;;5021764;28;20281;-90
2022/05/01 07:52:37;;;;;;;3.00;2.63;;;8.70;99.90;;;;;;5017603;28;20233;-90
2022/05/01 07:55:10;;;;;;;3.10;2.80;;;8.70;99.90;;;;;;5019296;28;20221;-90
2022/05/01 07:57:41;;;;;;;3.70;2.80;;;8.70;99.90;;;;;;5015982;28;20227;-90
2022/05/01 08:00:13;;;;;;;4.27;2.70;;;8.80;99.90;;;;;;5017296;28;20268;-91
2022/05/01 08:05:32;;;;;;;4.60;2.83;;;8.50;99.90;;;;;;4998496;28;20237;-90
2022/05/01 08:08:07;;;;;;;3.00;2.70;;;8.50;99.90;;;;;;4998594;28;20289;-90
2022/05/01 08:10:38;;;;;;;3.23;2.77;;;8.60;99.90;;;;;;5000366;28;20202;-90
2022/05/01 08:13:09;;;;;;;3.00;2.70;;;8.60;99.90;;;;;;5005425;28;20252;-91
2022/05/01 08:15:41;;;;;;;3.17;2.87;;;8.60;99.90;;;;;;5013152;28;20214;-90
2022/05/01 08:21:09;;;;;;;3.13;2.83;;;8.40;99.90;;;;;;5016845;28;20226;-90
2022/05/01 08:23:43;;;;;;;3.60;2.97;;;8.30;99.90;;;;;;5009343;28;20210;-90
2022/05/01 08:26:17;;;;;;;4.30;3.07;;;8.30;99.90;;;;;;5007094;28;20206;-90
2022/05/01 08:28:48;;;;;;;3.57;3.10;;;8.20;99.90;;;;;;5005367;28;20245;-90
2022/05/01 08:31:20;;;;;;;4.43;3.00;;;8.20;99.90;;;;;;5005554;28;20249;-90
2022/05/01 08:33:53;;;;;;;5.90;2.87;;;8.20;99.90;;;;;;5005213;28;20206;-88
2022/05/01 08:36:24;;;;;;;3.17;2.87;;;8.30;99.90;;;;;;5007297;28;20237;-90
2022/05/01 08:38:57;;;;;;;2.80;2.50;;;8.30;99.90;;;;;;5010895;28;20233;-90
2022/05/01 08:41:32;;;;;;;3.20;2.90;;;8.30;99.90;;;;;;5015162;28;20213;-88
2022/05/01 08:44:05;;;;;;;3.30;2.90;;;8.30;99.90;;;;;;5015322;28;20304;-89
2022/05/01 08:46:58;;;;;;;3.53;2.70;;;8.20;99.90;;;;;;5016333;28;20213;-90
2022/05/01 08:49:33;;;;;;;3.03;2.73;;;8.10;99.90;;;;;;5011059;28;20297;-90
2022/05/01 08:52:09;;;;;;;3.37;2.77;;;8.10;99.90;;;;;;5024199;28;20232;-89
2022/05/01 08:54:44;;;;;;;4.93;3.10;;;8.10;99.90;;;;;;5032722;28;20200;-89
2022/05/01 08:57:20;;;;;;;3.30;3.00;;;8.10;99.90;;;;;;5033375;28;20275;-91
2022/05/01 08:59:55;;;;;;;3.37;3.07;;;8.10;99.90;;;;;;5026944;28;20205;-90
2022/05/01 09:02:27;;;;;;;5.40;3.33;;;8.10;99.90;;;;;;5029113;28;20208;-88
2022/05/01 09:05:01;;;;;;;4.90;3.40;;;8.10;99.90;;;;;;5030922;28;20201;-89
2022/05/01 09:07:32;;;;;;;3.57;2.47;;;8.10;99.90;;;;;;5030643;28;20226;-90
2022/05/01 09:10:08;;;;;;;6.00;3.03;;;8.20;99.90;;;;;;5028982;28;20221;-89
2022/05/01 09:12:52;;;;;;;3.63;3.33;;;8.10;99.90;;;;;;5029458;28;20216;-91
2022/05/01 09:15:31;;;;;;;5.53;3.23;;;8.00;99.90;;;;;;5027215;28;20217;-90
2022/05/01 09:18:04;;;;;;;4.27;3.13;;;8.10;99.90;;;;;;5023271;28;20213;-90
2022/05/01 09:20:36;;;;;;;4.00;3.50;;;8.10;99.90;;;;;;5022706;28;20240;-90
2022/05/01 09:23:08;;;;;;;3.50;3.20;;;8.10;99.90;;;;;;5022491;28;20205;-89
2022/05/01 09:25:41;;;;;;;6.50;3.67;;;8.20;99.90;;;;;;5021615;28;20236;-90
2022/05/01 09:28:22;;;;;;;4.13;3.67;;;8.20;99.90;;;;;;5009855;28;20261;-90
2022/05/01 09:30:55;;;;;;;4.40;3.53;;;8.10;99.90;;;;;;4998718;28;20237;-90
2022/05/01 09:33:26;;;;;;;4.00;3.33;;;8.10;99.90;;;;;;4996539;28;20240;-90
2022/05/01 09:35:58;;;;;;;4.37;3.40;;;8.20;99.90;;;;;;4998455;28;20251;-90
2022/05/01 09:38:29;;;;;;;5.77;3.97;;;8.10;99.90;;;;;;5000233;28;20210;-90
2022/05/01 09:41:14;;;;;;;4.20;3.80;;;8.10;99.90;;;;;;4997597;28;20651;-91
2022/05/01 09:43:47;;;;;;;4.10;3.73;;;8.10;99.90;;;;;;5001554;28;20233;-90
2022/05/01 09:46:21;;;;;;;3.50;3.20;;;8.00;99.90;;;;;;5001210;28;20233;-90
2022/05/01 09:49:02;;;;;;;5.00;3.63;;;8.00;99.90;;;;;;5000732;28;20237;-90
2022/05/01 09:51:35;;;;;;;5.40;3.30;;;8.00;99.90;;;;;;5001210;28;20233;-90
2022/05/01 09:54:07;;;;;;;5.30;3.57;;;8.00;99.90;;;;;;5000811;28;20222;-91
2022/05/01 09:56:51;;;;;;;4.33;3.60;;;8.10;99.90;;;;;;5000839;28;20211;-90
2022/05/01 09:59:23;;;;;;;3.50;3.20;;;8.10;99.90;;;;;;5000725;28;20712;-90
2022/05/01 10:02:00;;;;;;;3.83;3.37;;;8.20;99.90;;;;;;5003831;28;20234;-89
2022/05/01 10:04:32;;;;;;;3.83;3.47;;;8.20;99.90;;;;;;5019297;28;20363;-90
2022/05/01 10:07:05;;;;;;;3.23;2.93;;;8.30;99.90;;;;;;5020355;28;20244;-90
2022/05/01 10:09:37;;;;;;;3.50;3.17;;;8.40;99.90;;;;;;5019904;28;20797;-89
2022/05/01 10:12:11;;;;;;;3.63;3.03;;;8.40;99.90;;;;;;5020321;28;20241;-90
2022/05/01 10:14:46;;;;;;;3.87;3.57;;;8.50;99.90;;;;;;5020312;28;20216;-90
2022/05/01 10:17:17;;;;;;;3.13;2.83;;;8.60;99.90;;;;;;5019775;28;20221;-89
2022/05/01 10:19:50;;;;;;;3.63;3.33;;;8.60;99.90;;;;;;5019609;28;20276;-90
2022/05/01 10:22:25;;;;;;;3.97;3.40;;;8.60;99.90;;;;;;5019555;28;20202;-90
2022/05/01 10:24:56;;;;;;;5.17;3.30;;;8.70;99.90;;;;;;5019915;28;20213;-90
2022/05/01 10:27:37;;;;;;;4.40;3.50;;;8.70;99.90;;;;;;5018900;28;20205;-91
2022/05/01 10:33:45;;;;;;;4.10;3.70;;;8.90;99.90;;;;;;5019535;28;20281;-90
2022/05/01 10:36:58;;;;;;;4.97;3.33;;;9.10;99.90;;;;;;5019692;28;20215;-90
2022/05/01 10:39:37;;;;;;;3.93;3.53;;;9.10;99.90;;;;;;5020863;28;20240;-90
2022/05/01 10:42:09;;;;;;;4.37;3.70;;;9.10;99.90;;;;;;5019528;28;20205;-90
2022/05/01 10:44:44;;;;;;;3.97;3.60;;;9.10;99.90;;;;;;5019534;28;20236;-90
2022/05/01 10:47:18;;;;;;;3.63;3.33;;;9.20;99.90;;;;;;5019621;28;20213;-90
2022/05/01 10:49:49;;;;;;;3.50;3.20;;;9.20;99.90;;;;;;5019902;28;20313;-90
2022/05/01 10:52:22;;;;;;;4.00;3.60;;;9.10;99.90;;;;;;5019309;28;20201;-90
2022/05/01 10:54:56;;;;;;;3.60;3.30;;;9.10;99.90;;;;;;5019426;28;20612;-90
2022/05/01 10:57:27;;;;;;;6.53;3.37;;;9.10;99.90;;;;;;5018714;28;20305;-90
2022/05/01 11:00:12;;;;;;;4.07;3.67;;;9.10;99.90;;;;;;5020018;28;20300;-90
2022/05/01 11:02:48;;;;;;;5.43;3.90;;;9.10;99.90;;;;;;5024318;28;20265;-90
2022/05/01 11:05:44;;;;;;;5.37;3.83;;;9.10;99.90;;;;;;5037134;28;20239;-90
2022/05/01 11:08:17;;;;;;;5.00;3.50;;;9.10;99.90;;;;;;5034330;28;20234;-91
2022/05/01 11:10:50;;;;;;;3.90;3.53;;;9.20;99.90;;;;;;5021326;28;20212;-90
2022/05/01 11:13:33;;;;;;;4.50;4.10;;;9.20;99.90;;;;;;5019512;28;20658;-90
2022/05/01 11:16:08;;;;;;;5.90;3.80;;;9.20;99.90;;;;;;5018743;28;20276;-90
2022/05/01 11:18:56;;;;;;;5.27;4.30;;;9.20;99.90;;;;;;5017939;28;20224;-90
2022/05/01 11:21:38;;;;;;;7.87;4.57;;;9.30;99.90;;;;;;5018580;28;20214;-90
2022/05/01 11:24:15;;;;;;;4.60;4.20;;;9.30;99.90;;;;;;5019740;28;20216;-90
2022/05/01 11:27:16;;;;;;;5.93;4.47;;;9.30;99.90;;;;;;5019616;28;20241;-90
2022/05/01 11:30:22;;;;;;;5.03;4.37;;;9.40;99.90;;;;;;5018185;28;20681;-90
2022/05/01 11:33:02;;;;;;;5.97;4.20;;;9.40;99.90;;;;;;5017529;28;20220;-90
2022/05/01 11:35:56;;;;;;;4.87;4.37;;;9.40;99.90;;;;;;5020479;28;20240;-91
2022/05/01 11:38:33;;;;;;;4.77;4.17;;;9.40;99.90;;;;;;5017282;28;20264;-89
2022/05/01 11:41:06;;;;;;;5.33;4.83;;;9.30;99.90;;;;;;5062727;22;20283;-91
2022/05/01 11:43:38;;;;;;;5.33;4.57;;;9.30;99.90;;;;;;5038526;28;20997;-91
2022/05/01 11:46:20;;;;;;;5.47;4.53;;;9.30;99.90;;;;;;5038905;28;20217;-91
2022/05/01 11:49:08;;;;;;;4.93;4.20;;;9.40;99.90;;;;;;5037483;28;20229;-90
2022/05/01 11:51:40;;;;;;;5.23;4.60;;;9.40;99.90;;;;;;5038545;28;20651;-90
2022/05/01 11:54:11;;;;;;;5.17;4.63;;;9.40;99.90;;;;;;5038356;28;20247;-91
2022/05/01 12:02:28;;;;;;;5.97;5.43;;;9.50;99.90;;;;;;5029715;28;20218;-90
2022/05/01 12:05:04;;;;;;;7.73;5.90;;;9.50;99.90;;;;;;5037739;28;20677;-91
2022/05/01 12:07:35;;;;;;;6.23;5.63;;;9.50;99.90;;;;;;5037374;28;20244;-91
2022/05/01 12:10:14;;;;;;;9.30;6.90;;;9.50;99.90;;;;;;5038151;28;20312;-91
2022/05/01 12:12:45;;;;;;;7.33;6.30;;;9.50;99.90;;;;;;5038168;28;20204;-90
2022/05/01 12:15:16;;;;;;;7.03;6.20;;;9.60;99.90;;;;;;5038051;28;20721;-92
2022/05/01 12:17:49;;;;;;;8.97;7.13;;;9.60;99.90;;;;;;5036791;28;20300;-91
2022/05/01 12:20:23;;;;;;;8.00;6.77;;;9.50;99.90;;;;;;5037297;28;20288;-90
2022/05/01 12:22:56;;;;;;;7.33;6.60;;;9.50;99.90;;;;;;5037477;28;20215;-91
2022/05/01 12:25:28;;;;;;;8.00;6.87;;;9.50;99.90;;;;;;5035919;28;20217;-91
2022/05/01 12:28:01;;;;;;;9.13;7.30;;;9.50;99.90;;;;;;5036788;28;20221;-91
2022/05/01 12:30:34;;;;;;;10.33;7.53;;;9.40;99.90;;;;;;5040350;28;20266;-91
2022/05/01 12:33:05;;;;;;;8.77;7.37;;;9.50;99.90;;;;;;5039412;28;20297;-91
2022/05/01 12:35:58;;;;;;;8.43;7.23;;;9.60;99.90;;;;;;5035887;28;20209;-90
2022/05/01 12:38:32;;;;;;;8.53;6.40;;;9.50;99.90;;;;;;5036575;28;20221;-90
2022/05/01 12:44:22;;;;;;;6.57;5.50;;;9.40;99.90;;;;;;5037484;28;20211;-91
2022/05/01 12:46:55;;;;;;;7.50;5.73;;;9.40;99.90;;;;;;5039341;28;20223;-91
2022/05/01 12:49:27;;;;;;;6.10;5.50;;;9.40;99.90;;;;;;5037866;28;20241;-91
2022/05/01 12:55:25;;;;;;;7.40;5.10;;;9.40;99.90;;;;;;5053330;27;2930173;-90
2022/05/01 12:57:58;;;;;;;4.87;4.33;;;9.40;99.90;;;;;;5117485;28;20293;-90
2022/05/01 13:00:34;;;;;;;6.27;4.80;;;9.50;99.90;;;;;;5115784;28;20237;-89
2022/05/01 13:03:28;;;;;;;5.37;4.87;;;9.40;99.90;;;;;;5124107;28;20688;-89
2022/05/01 13:06:03;;;;;;;5.57;4.97;;;9.50;99.90;;;;;;5137623;28;20274;-89
2022/05/01 13:08:35;;;;;;;5.93;5.30;;;9.60;99.90;;;;;;5137900;27;20577;-89
2022/05/01 13:11:23;;;;;;;6.00;5.33;;;9.60;99.90;;;;;;5118694;28;20256;-90
2022/05/01 13:13:56;;;;;;;5.50;4.70;;;9.60;99.90;;;;;;5138692;28;20262;-91
2022/05/01 13:16:41;;;;;;;6.83;5.23;;;9.60;99.90;;;;;;5136777;28;20205;-89
2022/05/01 13:19:14;;;;;;;5.50;4.83;;;9.60;99.90;;;;;;5150107;27;20210;-91
2022/05/01 13:21:47;;;;;;;6.43;5.80;;;9.50;99.90;;;;;;5153469;27;20202;-91
2022/05/01 13:24:21;;;;;;;7.53;6.40;;;9.60;99.90;;;;;;5142823;27;20726;-91
2022/05/01 13:26:55;;;;;;;6.63;6.03;;;9.60;99.90;;;;;;5140322;28;20220;-89
2022/05/01 13:29:27;;;;;;;6.23;5.60;;;9.60;99.90;;;;;;5134276;28;20229;-90
2022/05/01 13:31:59;;;;;;;7.00;6.30;;;9.60;99.90;;;;;;5137083;28;20547;-91
2022/05/01 13:34:30;;;;;;;6.73;5.80;;;9.60;99.90;;;;;;5139617;28;20296;-91
2022/05/01 13:37:06;;;;;;;7.17;6.27;;;9.60;99.90;;;;;;5135625;28;20237;-91
2022/05/01 13:45:15;;;;;;;6.53;5.13;;;9.60;99.90;;;;;;5102097;28;20245;-90
2022/05/01 13:47:48;;;;;;;5.50;5.00;;;9.60;99.90;;;;;;5134613;28;20210;-91
2022/05/01 13:50:20;;;;;;;7.23;5.40;;;9.60;99.90;;;;;;5141608;28;20244;-91
2022/05/01 13:52:51;;;;;;;7.37;4.80;;;9.60;99.90;;;;;;5136622;28;20229;-90
2022/05/01 13:55:23;;;;;;;6.00;4.57;;;9.60;99.90;;;;;;5134661;28;20282;-91
2022/05/01 13:57:57;;;;;;;4.40;3.90;;;9.60;99.90;;;;;;5134718;28;20650;-91
2022/05/01 14:00:29;;;;;;;6.00;4.13;;;9.60;99.90;;;;;;5135405;28;20240;-91
2022/05/01 14:03:00;;;;;;;5.80;4.23;;;9.60;99.90;;;;;;5135916;28;20731;-91
2022/05/01 14:05:32;;;;;;;6.00;4.50;;;9.50;99.90;;;;;;5127505;28;20229;-91
2022/05/01 14:08:03;;;;;;;6.43;4.40;;;9.50;99.90;;;;;;5121866;28;20210;-91
2022/05/01 14:10:35;;;;;;;5.00;4.50;;;9.60;99.90;;;;;;5123987;28;20262;-90
2022/05/01 14:13:08;;;;;;;4.83;4.13;;;9.60;99.90;;;;;;5127130;28;20218;-90
2022/05/01 14:15:39;;;;;;;6.00;4.60;;;9.60;99.90;;;;;;5131415;28;20230;-90
2022/05/01 14:18:12;;;;;;;6.43;4.90;;;9.90;99.90;;;;;;5137500;28;20262;-91
2022/05/01 14:20:45;;;;;;;5.50;4.87;;;10.00;99.90;;;;;;5138637;28;20241;-90
2022/05/01 14:23:19;;;;;;;5.37;4.50;;;10.10;99.90;;;;;;5138456;28;20194;-90
2022/05/01 14:25:51;;;;;;;5.20;4.70;;;10.20;99.90;;;;;;5128275;28;20233;-91
2022/05/01 14:28:24;;;;;;;5.63;4.50;;;10.20;99.90;;;;;;5124620;28;20198;-91
2022/05/01 14:31:06;;;;;;;6.43;4.43;;;10.20;99.90;;;;;;5125871;28;20673;-90